Time,TemperatureF,DewpointF,PressureIn,WindDirection,WindDirectionDegrees,WindSpeedMPH,WindSpeedGustMPH,Humidity,HourlyPrecipIn,Conditions,Clouds,dailyrainin,SoftwareType,DateUTC
2013-01-19 00:00:00,36.9,32.8,30.17,North,32767,0.0,0.0,85,0.00,,,0.00,Wunderground v.1.13,2013-01-19 08:00:00,
2013-01-19 00:05:00,36.8,32.7,30.17,North,32767,0.0,0.0,85,0.00,,,0.00,Wunderground v.1.13,2013-01-19 08:05:00,
2013-01-19 00:15:00,36.6,32.5,30.17,North,360,0.0,0.0,85,0.00,,,0.00,Wunderground v.1.13,2013-01-19 08:15:00,
2013-01-19 00:20:00,36.5,32.4,30.18,North,360,0.0,0.0,85,0.00,,,0.00,Wunderground v.1.13,2013-01-19 08:20:00,
2013-01-19 00:25:00,36.4,32.6,30.18,North,32767,0.0,0.0,86,0.00,,,0.00,Wunderground v.1.13,2013-01-19 08:25:00,
2013-01-19 00:30:00,36.3,32.5,30.17,North,32767,0.0,0.0,86,0.00,,,0.00,Wunderground v.1.13,2013-01-19 08:30:00,
2013-01-19 00:35:00,36.2,32.4,30.17,North,32767,0.0,0.0,86,0.00,,,0.00,Wunderground v.1.13,2013-01-19 08:35:00,
2013-01-19 00:40:00,36.1,32.3,30.17,North,32767,0.0,0.0,86,0.00,,,0.00,Wunderground v.1.13,2013-01-19 08:40:00,
2013-01-19 00:45:00,36.0,32.2,30.17,North,32767,0.0,0.0,86,0.00,,,0.00,Wunderground v.1.13,2013-01-19 08:45:00,
2013-01-19 00:55:00,35.8,32.0,30.17,North,32767,0.0,0.0,86,0.00,,,0.00,Wunderground v.1.13,2013-01-19 08:55:00,
2013-01-19 01:00:00,35.7,31.9,30.18,North,32767,0.0,0.0,86,0.00,,,0.00,Wunderground v.1.13,2013-01-19 09:00:00,
2013-01-19 01:05:00,35.6,31.8,30.18,North,32767,0.0,0.0,86,0.00,,,0.00,Wunderground v.1.13,2013-01-19 09:05:00,
2013-01-19 01:15:00,35.5,32.0,30.17,North,32767,0.0,0.0,87,0.00,,,0.00,Wunderground v.1.13,2013-01-19 09:15:00,
2013-01-19 01:20:00,35.5,32.0,30.18,North,32767,0.0,0.0,87,0.00,,,0.00,Wunderground v.1.13,2013-01-19 09:20:00,
2013-01-19 01:25:00,35.4,31.9,30.18,North,360,0.0,0.0,87,0.00,,,0.00,Wunderground v.1.13,2013-01-19 09:25:00,
2013-01-19 01:30:00,35.3,31.8,30.18,North,32767,0.0,0.0,87,0.00,,,0.00,Wunderground v.1.13,2013-01-19 09:30:00,
2013-01-19 01:35:00,35.3,31.8,30.18,North,32767,0.0,0.0,87,0.00,,,0.00,Wunderground v.1.13,2013-01-19 09:35:00,
2013-01-19 01:45:00,35.3,31.8,30.18,North,32767,0.0,0.0,87,0.00,,,0.00,Wunderground v.1.13,2013-01-19 09:45:00,
2013-01-19 01:50:00,35.2,31.7,30.18,North,32767,0.0,0.0,87,0.00,,,0.00,Wunderground v.1.13,2013-01-19 09:50:00,
2013-01-19 01:55:00,35.2,31.7,30.18,North,32767,0.0,0.0,87,0.00,,,0.00,Wunderground v.1.13,2013-01-19 09:55:00,
2013-01-19 02:00:00,35.2,31.7,30.18,North,360,0.0,0.0,87,0.00,,,0.00,Wunderground v.1.13,2013-01-19 10:00:00,
2013-01-19 02:06:00,35.2,31.7,30.19,North,32767,0.0,0.0,87,0.00,,,0.00,Wunderground v.1.13,2013-01-19 10:06:00,
2013-01-19 02:15:00,35.1,31.6,30.19,North,32767,0.0,0.0,87,0.00,,,0.00,Wunderground v.1.13,2013-01-19 10:15:00,
2013-01-19 02:20:00,35.1,31.6,30.19,North,32767,0.0,0.0,87,0.00,,,0.00,Wunderground v.1.13,2013-01-19 10:20:00,
2013-01-19 02:25:00,35.0,31.5,30.19,North,32767,0.0,0.0,87,0.00,,,0.00,Wunderground v.1.13,2013-01-19 10:25:00,
2013-01-19 02:35:00,35.0,31.5,30.19,North,32767,0.0,0.0,87,0.00,,,0.00,Wunderground v.1.13,2013-01-19 10:35:00,
2013-01-19 02:40:00,35.0,31.5,30.19,North,360,0.0,0.0,87,0.00,,,0.00,Wunderground v.1.13,2013-01-19 10:40:00,
2013-01-19 02:45:00,34.9,31.4,30.19,North,32767,0.0,0.0,87,0.00,,,0.00,Wunderground v.1.13,2013-01-19 10:45:00,
2013-01-19 02:55:00,34.7,31.5,30.19,North,360,0.0,0.0,88,0.00,,,0.00,Wunderground v.1.13,2013-01-19 10:55:00,
2013-01-19 03:00:00,34.7,31.5,30.19,North,32767,0.0,0.0,88,0.00,,,0.00,Wunderground v.1.13,2013-01-19 11:00:00,
2013-01-19 03:05:00,34.7,31.5,30.19,North,32767,0.0,0.0,88,0.00,,,0.00,Wunderground v.1.13,2013-01-19 11:05:00,
2013-01-19 04:50:00,33.6,30.4,30.19,North,32767,0.0,0.0,88,0.00,,,0.00,Wunderground v.1.13,2013-01-19 12:50:00,
2013-01-19 04:55:00,33.6,30.4,30.19,North,32767,0.0,0.0,88,0.00,,,0.00,Wunderground v.1.13,2013-01-19 12:55:00,
2013-01-19 05:00:00,33.6,30.4,30.19,North,360,0.0,0.0,88,0.00,,,0.00,Wunderground v.1.13,2013-01-19 13:00:00,
2013-01-19 05:06:00,33.5,30.3,30.19,North,32767,0.0,0.0,88,0.00,,,0.00,Wunderground v.1.13,2013-01-19 13:06:00,
2013-01-19 05:10:00,33.5,30.3,30.19,North,32767,0.0,0.0,88,0.00,,,0.00,Wunderground v.1.13,2013-01-19 13:10:00,
2013-01-19 05:15:00,33.5,30.3,30.19,North,360,0.0,0.0,88,0.00,,,0.00,Wunderground v.1.13,2013-01-19 13:15:00,
2013-01-19 05:20:00,33.5,30.3,30.20,North,32767,0.0,0.0,88,0.00,,,0.00,Wunderground v.1.13,2013-01-19 13:20:00,
2013-01-19 05:25:00,33.4,30.2,30.20,North,360,0.0,0.0,88,0.00,,,0.00,Wunderground v.1.13,2013-01-19 13:25:00,
2013-01-19 05:30:00,33.3,30.1,30.20,North,360,0.0,0.0,88,0.00,,,0.00,Wunderground v.1.13,2013-01-19 13:30:00,
2013-01-19 05:40:00,33.2,30.3,30.20,North,360,0.0,0.0,89,0.00,,,0.00,Wunderground v.1.13,2013-01-19 13:40:00,
2013-01-19 05:45:00,33.2,30.0,30.20,North,32767,0.0,0.0,88,0.00,,,0.00,Wunderground v.1.13,2013-01-19 13:45:00,
2013-01-19 05:55:00,33.0,29.8,30.20,North,360,0.0,0.0,88,0.00,,,0.00,Wunderground v.1.13,2013-01-19 13:55:00,
2013-01-19 06:00:00,33.0,29.8,30.20,North,32767,0.0,0.0,88,0.00,,,0.00,Wunderground v.1.13,2013-01-19 14:00:00,
2013-01-19 06:05:00,32.9,29.7,30.20,North,360,0.0,0.0,88,0.00,,,0.00,Wunderground v.1.13,2013-01-19 14:05:00,
2013-01-19 06:15:00,32.8,29.9,30.20,North,32767,0.0,0.0,89,0.00,,,0.00,Wunderground v.1.13,2013-01-19 14:15:00,
2013-01-19 06:20:00,32.7,29.8,30.20,North,32767,0.0,0.0,89,0.00,,,0.00,Wunderground v.1.13,2013-01-19 14:20:00,
2013-01-19 06:25:00,32.6,29.7,30.20,North,32767,0.0,0.0,89,0.00,,,0.00,Wunderground v.1.13,2013-01-19 14:25:00,
2013-01-19 06:30:00,32.6,29.7,30.20,North,32767,0.0,0.0,89,0.00,,,0.00,Wunderground v.1.13,2013-01-19 14:30:00,
2013-01-19 06:35:00,32.6,29.7,30.20,North,360,0.0,0.0,89,0.00,,,0.00,Wunderground v.1.13,2013-01-19 14:35:00,
2013-01-19 06:45:00,32.5,29.6,30.20,North,32767,0.0,0.0,89,0.00,,,0.00,Wunderground v.1.13,2013-01-19 14:45:00,
2013-01-19 06:50:00,32.4,29.5,30.21,North,360,0.0,0.0,89,0.00,,,0.00,Wunderground v.1.13,2013-01-19 14:50:00,
2013-01-19 06:55:00,32.4,29.5,30.21,North,32767,0.0,0.0,89,0.00,,,0.00,Wunderground v.1.13,2013-01-19 14:55:00,
2013-01-19 07:00:00,32.3,29.4,30.21,North,360,0.0,0.0,89,0.00,,,0.00,Wunderground v.1.13,2013-01-19 15:00:00,
2013-01-19 07:06:00,32.3,29.4,30.21,North,360,0.0,0.0,89,0.00,,,0.00,Wunderground v.1.13,2013-01-19 15:06:00,
2013-01-19 07:15:00,32.1,29.2,30.21,North,32767,0.0,0.0,89,0.00,,,0.00,Wunderground v.1.13,2013-01-19 15:15:00,
2013-01-19 07:20:00,32.1,29.2,30.21,North,360,0.0,0.0,89,0.00,,,0.00,Wunderground v.1.13,2013-01-19 15:20:00,
2013-01-19 07:25:00,32.0,30.7,30.21,North,32767,0.0,0.0,95,0.00,,,0.00,Wunderground v.1.13,2013-01-19 15:25:00,
2013-01-19 07:30:00,31.9,29.0,30.21,North,360,0.0,0.0,89,0.00,,,0.00,Wunderground v.1.13,2013-01-19 15:30:00,
2013-01-19 07:35:00,31.9,29.0,30.22,North,32767,0.0,0.0,89,0.00,,,0.00,Wunderground v.1.13,2013-01-19 15:35:00,
2013-01-19 07:45:00,31.9,29.0,30.22,North,32767,0.0,0.0,89,0.00,,,0.00,Wunderground v.1.13,2013-01-19 15:45:00,
2013-01-19 07:55:00,32.1,29.2,30.22,North,360,0.0,0.0,89,0.00,,,0.00,Wunderground v.1.13,2013-01-19 15:55:00,
2013-01-19 08:00:00,32.2,29.3,30.22,North,32767,0.0,0.0,89,0.00,,,0.00,Wunderground v.1.13,2013-01-19 16:00:00,
2013-01-19 08:05:00,32.4,29.5,30.22,North,32767,0.0,0.0,89,0.00,,,0.00,Wunderground v.1.13,2013-01-19 16:05:00,
2013-01-19 08:15:00,33.0,30.1,30.22,North,32767,0.0,0.0,89,0.00,,,0.00,Wunderground v.1.13,2013-01-19 16:15:00,
2013-01-19 08:20:00,33.3,30.4,30.22,North,360,0.0,0.0,89,0.00,,,0.00,Wunderground v.1.13,2013-01-19 16:20:00,
2013-01-19 08:25:00,33.6,30.7,30.23,North,32767,0.0,0.0,89,0.00,,,0.00,Wunderground v.1.13,2013-01-19 16:25:00,
2013-01-19 08:30:00,34.0,31.1,30.23,North,32767,0.0,0.0,89,0.00,,,0.00,Wunderground v.1.13,2013-01-19 16:30:00,
2013-01-19 08:35:00,34.4,31.5,30.23,North,32767,0.0,0.0,89,0.00,,,0.00,Wunderground v.1.13,2013-01-19 16:35:00,
2013-01-19 08:40:00,34.4,31.5,30.23,North,32767,0.0,0.0,89,0.00,,,0.00,Wunderground v.1.13,2013-01-19 16:40:00,
2013-01-19 08:45:00,35.0,32.1,30.23,North,32767,0.0,0.0,89,0.00,,,0.00,Wunderground v.1.13,2013-01-19 16:45:00,
2013-01-19 08:50:00,36.1,33.5,30.23,North,32767,0.0,0.0,90,0.00,,,0.00,Wunderground v.1.13,2013-01-19 16:50:00,
2013-01-19 08:55:00,37.9,35.2,30.23,North,360,0.0,0.0,90,0.00,,,0.00,Wunderground v.1.13,2013-01-19 16:55:00,
2013-01-19 09:00:00,39.7,37.3,30.23,North,360,0.0,0.0,91,0.00,,,0.00,Wunderground v.1.13,2013-01-19 17:00:00,
2013-01-19 09:06:00,41.9,39.5,30.23,North,32767,0.0,0.0,91,0.00,,,0.00,Wunderground v.1.13,2013-01-19 17:06:00,
2013-01-19 09:15:00,45.3,42.5,30.24,North,32767,0.0,0.0,90,0.00,,,0.00,Wunderground v.1.13,2013-01-19 17:15:00,
2013-01-19 09:20:00,46.6,42.9,30.24,North,360,0.0,0.0,87,0.00,,,0.00,Wunderground v.1.13,2013-01-19 17:20:00,
2013-01-19 09:30:00,47.2,39.7,30.24,North,32767,0.0,0.0,75,0.00,,,0.00,Wunderground v.1.13,2013-01-19 17:30:00,
2013-01-19 09:35:00,47.2,37.9,30.24,North,360,0.0,0.0,70,0.00,,,0.00,Wunderground v.1.13,2013-01-19 17:35:00,
2013-01-19 09:40:00,47.4,37.0,30.25,North,32767,0.0,0.0,67,0.00,,,0.00,Wunderground v.1.13,2013-01-19 17:40:00,
2013-01-19 09:45:00,47.5,36.3,30.25,North,32767,0.0,0.0,65,0.00,,,0.00,Wunderground v.1.13,2013-01-19 17:45:00,
2013-01-19 09:50:00,47.6,36.0,30.25,North,32767,0.0,0.0,64,0.00,,,0.00,Wunderground v.1.13,2013-01-19 17:50:00,
2013-01-19 09:55:00,47.7,36.1,30.25,North,32767,0.0,0.0,64,0.00,,,0.00,Wunderground v.1.13,2013-01-19 17:55:00,
2013-01-19 10:00:00,47.8,35.8,30.25,North,32767,0.0,0.0,63,0.00,,,0.00,Wunderground v.1.13,2013-01-19 18:00:00,
2013-01-19 10:15:00,48.7,36.3,30.25,North,360,0.0,0.0,62,0.00,,,0.00,Wunderground v.1.13,2013-01-19 18:15:00,
2013-01-19 10:20:00,48.8,36.4,30.25,North,32767,0.0,0.0,62,0.00,,,0.00,Wunderground v.1.13,2013-01-19 18:20:00,
2013-01-19 10:30:00,48.7,36.7,30.24,North,360,0.0,0.0,63,0.00,,,0.00,Wunderground v.1.13,2013-01-19 18:30:00,
2013-01-19 10:35:00,48.6,36.6,30.24,North,32767,0.0,0.0,63,0.00,,,0.00,Wunderground v.1.13,2013-01-19 18:35:00,
2013-01-19 10:40:00,48.7,37.1,30.24,North,360,0.0,0.0,64,0.00,,,0.00,Wunderground v.1.13,2013-01-19 18:40:00,
2013-01-19 10:45:00,49.0,37.3,30.24,North,360,0.0,0.0,64,0.00,,,0.00,Wunderground v.1.13,2013-01-19 18:45:00,
2013-01-19 10:55:00,49.6,37.5,30.23,North,32767,0.0,0.0,63,0.00,,,0.00,Wunderground v.1.13,2013-01-19 18:55:00,
2013-01-19 11:00:00,49.9,37.8,30.23,North,32767,0.0,0.0,63,0.00,,,0.00,Wunderground v.1.13,2013-01-19 19:00:00,
2013-01-19 11:05:00,50.2,38.1,30.23,North,32767,0.0,0.0,63,0.00,,,0.00,Wunderground v.1.13,2013-01-19 19:05:00,
2013-01-19 11:15:00,50.7,38.1,30.23,North,360,0.0,0.0,62,0.00,,,0.00,Wunderground v.1.13,2013-01-19 19:15:00,
2013-01-19 11:20:00,51.0,38.4,30.23,North,32767,0.0,0.0,62,0.00,,,0.00,Wunderground v.1.13,2013-01-19 19:20:00,
2013-01-19 11:25:00,51.4,39.2,30.23,North,360,0.0,0.0,63,0.00,,,0.00,Wunderground v.1.13,2013-01-19 19:25:00,
2013-01-19 11:35:00,52.1,39.1,30.22,North,360,0.0,0.0,61,0.00,,,0.00,Wunderground v.1.13,2013-01-19 19:35:00,
2013-01-19 11:40:00,52.4,38.9,30.22,North,32767,0.0,0.0,60,0.00,,,0.00,Wunderground v.1.13,2013-01-19 19:40:00,
2013-01-19 11:50:00,53.0,39.0,30.21,North,32767,0.0,0.0,59,0.00,,,0.00,Wunderground v.1.13,2013-01-19 19:50:00,
2013-01-19 11:55:00,53.3,39.8,30.21,North,360,0.0,0.0,60,0.00,,,0.00,Wunderground v.1.13,2013-01-19 19:55:00,
2013-01-19 12:00:00,53.8,39.8,30.21,North,32767,0.0,0.0,59,0.00,,,0.00,Wunderground v.1.13,2013-01-19 20:00:00,
2013-01-19 12:10:00,54.8,40.3,30.20,North,32767,0.0,0.0,58,0.00,,,0.00,Wunderground v.1.13,2013-01-19 20:10:00,
2013-01-19 12:20:00,55.7,40.7,30.20,North,32767,0.0,0.0,57,0.00,,,0.00,Wunderground v.1.13,2013-01-19 20:20:00,
2013-01-19 12:25:00,56.2,40.7,30.20,North,32767,0.0,0.0,56,0.00,,,0.00,Wunderground v.1.13,2013-01-19 20:25:00,
2013-01-19 12:30:00,56.6,41.1,30.19,North,32767,0.0,0.0,56,0.00,,,0.00,Wunderground v.1.13,2013-01-19 20:30:00,
2013-01-19 12:40:00,57.2,41.2,30.19,North,32767,0.0,0.0,55,0.00,,,0.00,Wunderground v.1.13,2013-01-19 20:40:00,
2013-01-19 12:45:00,57.4,41.4,30.19,North,360,0.0,0.0,55,0.00,,,0.00,Wunderground v.1.13,2013-01-19 20:45:00,
2013-01-19 12:50:00,57.6,41.1,30.19,North,32767,0.0,0.0,54,0.00,,,0.00,Wunderground v.1.13,2013-01-19 20:50:00,
2013-01-19 12:55:00,57.9,41.3,30.19,North,360,0.0,0.0,54,0.00,,,0.00,Wunderground v.1.13,2013-01-19 20:55:00,
2013-01-19 13:05:00,59.0,41.9,30.19,North,32767,0.0,0.0,53,0.00,,,0.00,Wunderground v.1.13,2013-01-19 21:05:00,
2013-01-19 13:15:00,61.1,42.3,30.18,North,32767,0.0,0.0,50,0.00,,,0.00,Wunderground v.1.13,2013-01-19 21:15:00,
2013-01-19 13:20:00,61.6,42.8,30.18,North,32767,0.0,0.0,50,0.00,,,0.00,Wunderground v.1.13,2013-01-19 21:20:00,
2013-01-19 13:25:00,62.2,42.8,30.18,North,360,0.0,0.0,49,0.00,,,0.00,Wunderground v.1.13,2013-01-19 21:25:00,
2013-01-19 13:30:00,63.0,42.4,30.18,North,32767,0.0,0.0,47,0.00,,,0.00,Wunderground v.1.13,2013-01-19 21:30:00,
2013-01-19 13:35:00,63.8,43.2,30.18,North,360,0.0,0.0,47,0.00,,,0.00,Wunderground v.1.13,2013-01-19 21:35:00,
2013-01-19 13:45:00,65.1,42.6,30.17,North,32767,0.0,0.0,44,0.00,,,0.00,Wunderground v.1.13,2013-01-19 21:45:00,
2013-01-19 13:55:00,66.4,43.2,30.17,North,360,0.0,0.0,43,0.00,,,0.00,Wunderground v.1.13,2013-01-19 21:55:00,
2013-01-19 14:00:00,66.8,43.0,30.17,North,32767,0.0,0.0,42,0.00,,,0.00,Wunderground v.1.13,2013-01-19 22:00:00,
2013-01-19 14:06:00,66.8,42.3,30.17,North,32767,0.0,0.0,41,0.00,,,0.00,Wunderground v.1.13,2013-01-19 22:06:00,
2013-01-19 14:15:00,67.3,42.8,30.17,North,32767,0.0,0.0,41,0.00,,,0.00,Wunderground v.1.13,2013-01-19 22:15:00,
2013-01-19 14:20:00,67.5,42.3,30.17,North,32767,0.0,0.0,40,0.00,,,0.00,Wunderground v.1.13,2013-01-19 22:20:00,
2013-01-19 14:30:00,67.7,43.1,30.17,North,32767,0.0,0.0,41,0.00,,,0.00,Wunderground v.1.13,2013-01-19 22:30:00,
2013-01-19 14:40:00,67.4,41.6,30.17,North,32767,0.0,0.0,39,0.00,,,0.00,Wunderground v.1.13,2013-01-19 22:40:00,
2013-01-19 14:45:00,67.5,42.3,30.16,North,32767,0.0,0.0,40,0.00,,,0.00,Wunderground v.1.13,2013-01-19 22:45:00,
2013-01-19 14:50:00,67.6,42.4,30.16,North,32767,0.0,0.0,40,0.00,,,0.00,Wunderground v.1.13,2013-01-19 22:50:00,
2013-01-19 14:55:00,67.7,42.5,30.16,North,32767,0.0,0.0,40,0.00,,,0.00,Wunderground v.1.13,2013-01-19 22:55:00,
2013-01-19 15:00:00,67.8,42.6,30.17,North,32767,0.0,0.0,40,0.00,,,0.00,Wunderground v.1.13,2013-01-19 23:00:00,
2013-01-19 15:06:00,67.8,43.2,30.16,North,32767,0.0,0.0,41,0.00,,,0.00,Wunderground v.1.13,2013-01-19 23:06:00,
2013-01-19 15:15:00,67.1,43.2,30.16,North,32767,0.0,0.0,42,0.00,,,0.00,Wunderground v.1.13,2013-01-19 23:15:00,
2013-01-19 15:20:00,66.3,41.9,30.16,North,32767,0.0,0.0,41,0.00,,,0.00,Wunderground v.1.13,2013-01-19 23:20:00,
2013-01-19 15:25:00,65.5,43.0,30.16,North,32767,0.0,0.0,44,0.00,,,0.00,Wunderground v.1.13,2013-01-19 23:25:00,
2013-01-19 15:30:00,64.8,43.5,30.16,North,32767,0.0,0.0,46,0.00,,,0.00,Wunderground v.1.13,2013-01-19 23:30:00,
2013-01-19 15:35:00,64.1,42.9,30.16,North,360,0.0,0.0,46,0.00,,,0.00,Wunderground v.1.13,2013-01-19 23:35:00,
2013-01-19 15:45:00,63.4,42.8,30.16,North,32767,0.0,0.0,47,0.00,,,0.00,Wunderground v.1.13,2013-01-19 23:45:00,
2013-01-19 15:55:00,62.8,42.8,30.16,North,360,0.0,0.0,48,0.00,,,0.00,Wunderground v.1.13,2013-01-19 23:55:00,
2013-01-19 16:00:00,62.5,42.5,30.16,North,32767,0.0,0.0,48,0.00,,,0.00,Wunderground v.1.13,2013-01-20 00:00:00,
2013-01-19 16:10:00,62.0,42.1,30.16,North,360,0.0,0.0,48,0.00,,,0.00,Wunderground v.1.13,2013-01-20 00:10:00,
2013-01-19 16:15:00,61.8,41.9,30.16,North,32767,0.0,0.0,48,0.00,,,0.00,Wunderground v.1.13,2013-01-20 00:15:00,
2013-01-19 16:20:00,61.6,42.2,30.16,North,32767,0.0,0.0,49,0.00,,,0.00,Wunderground v.1.13,2013-01-20 00:20:00,
2013-01-19 16:25:00,61.3,42.5,30.16,North,360,0.0,0.0,50,0.00,,,0.00,Wunderground v.1.13,2013-01-20 00:25:00,
2013-01-19 16:30:00,60.9,42.6,30.16,North,32767,0.0,0.0,51,0.00,,,0.00,Wunderground v.1.13,2013-01-20 00:30:00,
2013-01-19 16:35:00,60.5,42.3,30.17,North,32767,0.0,0.0,51,0.00,,,0.00,Wunderground v.1.13,2013-01-20 00:35:00,
2013-01-19 16:40:00,59.9,42.7,30.16,North,32767,0.0,0.0,53,0.00,,,0.00,Wunderground v.1.13,2013-01-20 00:40:00,
2013-01-19 16:45:00,59.4,42.3,30.16,North,32767,0.0,0.0,53,0.00,,,0.00,Wunderground v.1.13,2013-01-20 00:45:00,
2013-01-19 16:55:00,58.5,42.4,30.16,North,32767,0.0,0.0,55,0.00,,,0.00,Wunderground v.1.13,2013-01-20 00:55:00,
2013-01-19 17:00:00,57.9,42.3,30.16,North,32767,0.0,0.0,56,0.00,,,0.00,Wunderground v.1.13,2013-01-20 01:00:00,
2013-01-19 17:05:00,57.2,41.6,30.16,North,32767,0.0,0.0,56,0.00,,,0.00,Wunderground v.1.13,2013-01-20 01:05:00,
2013-01-19 17:15:00,56.1,41.5,30.16,North,360,0.0,0.0,58,0.00,,,0.00,Wunderground v.1.13,2013-01-20 01:15:00,
2013-01-19 17:20:00,55.4,41.3,30.16,North,32767,0.0,0.0,59,0.00,,,0.00,Wunderground v.1.13,2013-01-20 01:20:00,
2013-01-19 17:25:00,54.8,40.7,30.16,North,32767,0.0,0.0,59,0.00,,,0.00,Wunderground v.1.13,2013-01-20 01:25:00,
2013-01-19 17:35:00,53.5,40.4,30.16,North,32767,0.0,0.0,61,0.00,,,0.00,Wunderground v.1.13,2013-01-20 01:35:00,
2013-01-19 17:40:00,52.9,40.2,30.16,North,360,0.0,0.0,62,0.00,,,0.00,Wunderground v.1.13,2013-01-20 01:40:00,
2013-01-19 17:45:00,52.4,40.2,30.16,North,32767,0.0,0.0,63,0.00,,,0.00,Wunderground v.1.13,2013-01-20 01:45:00,
2013-01-19 17:50:00,51.8,40.0,30.16,North,360,0.0,0.0,64,0.00,,,0.00,Wunderground v.1.13,2013-01-20 01:50:00,
2013-01-19 18:00:00,50.8,39.8,30.16,North,360,0.0,0.0,66,0.00,,,0.00,Wunderground v.1.13,2013-01-20 02:00:00,
2013-01-19 18:05:00,50.3,39.8,30.16,North,32767,0.0,0.0,67,0.00,,,0.00,Wunderground v.1.13,2013-01-20 02:05:00,
2013-01-19 18:15:00,49.4,39.3,30.16,North,32767,0.0,0.0,68,0.00,,,0.00,Wunderground v.1.13,2013-01-20 02:15:00,
2013-01-19 18:20:00,49.0,39.3,30.16,North,32767,0.0,0.0,69,0.00,,,0.00,Wunderground v.1.13,2013-01-20 02:20:00,
2013-01-19 18:25:00,48.5,39.2,30.17,North,32767,0.0,0.0,70,0.00,,,0.00,Wunderground v.1.13,2013-01-20 02:25:00,
2013-01-19 18:30:00,48.2,39.2,30.17,North,32767,0.0,0.0,71,0.00,,,0.00,Wunderground v.1.13,2013-01-20 02:30:00,
2013-01-19 18:40:00,47.5,38.9,30.17,North,360,0.0,0.0,72,0.00,,,0.00,Wunderground v.1.13,2013-01-20 02:40:00,
2013-01-19 18:45:00,47.1,38.5,30.17,North,32767,0.0,0.0,72,0.00,,,0.00,Wunderground v.1.13,2013-01-20 02:45:00,
2013-01-19 18:55:00,46.5,38.3,30.17,North,32767,0.0,0.0,73,0.00,,,0.00,Wunderground v.1.13,2013-01-20 02:55:00,
2013-01-19 19:00:00,46.2,38.0,30.17,North,32767,0.0,0.0,73,0.00,,,0.00,Wunderground v.1.13,2013-01-20 03:00:00,
2013-01-19 19:05:00,45.8,38.0,30.18,North,32767,0.0,0.0,74,0.00,,,0.00,Wunderground v.1.13,2013-01-20 03:05:00,
2013-01-19 19:15:00,45.3,37.5,30.17,North,32767,0.0,0.0,74,0.00,,,0.00,Wunderground v.1.13,2013-01-20 03:15:00,
2013-01-19 19:20:00,45.0,37.2,30.18,North,32767,0.0,0.0,74,0.00,,,0.00,Wunderground v.1.13,2013-01-20 03:20:00,
2013-01-19 19:25:00,44.8,37.4,30.18,North,32767,0.0,0.0,75,0.00,,,0.00,Wunderground v.1.13,2013-01-20 03:25:00,
2013-01-19 19:30:00,44.5,37.1,30.17,North,360,0.0,0.0,75,0.00,,,0.00,Wunderground v.1.13,2013-01-20 03:30:00,
2013-01-19 19:36:00,44.3,36.9,30.18,North,32767,0.0,0.0,75,0.00,,,0.00,Wunderground v.1.13,2013-01-20 03:36:00,
2013-01-19 19:45:00,43.9,36.8,30.18,North,32767,0.0,0.0,76,0.00,,,0.00,Wunderground v.1.13,2013-01-20 03:45:00,
2013-01-19 19:50:00,43.7,36.6,30.18,North,360,0.0,0.0,76,0.00,,,0.00,Wunderground v.1.13,2013-01-20 03:50:00,
2013-01-19 20:00:00,43.2,36.5,30.18,North,32767,0.0,0.0,77,0.00,,,0.00,Wunderground v.1.13,2013-01-20 04:00:00,
2013-01-19 20:10:00,42.8,36.4,30.18,North,32767,0.0,0.0,78,0.00,,,0.00,Wunderground v.1.13,2013-01-20 04:10:00,
2013-01-19 20:15:00,42.6,36.2,30.19,North,32767,0.0,0.0,78,0.00,,,0.00,Wunderground v.1.13,2013-01-20 04:15:00,
2013-01-19 20:20:00,42.4,36.3,30.19,North,360,0.0,0.0,79,0.00,,,0.00,Wunderground v.1.13,2013-01-20 04:20:00,
2013-01-19 20:30:00,42.1,36.1,30.19,North,32767,0.0,0.0,79,0.00,,,0.00,Wunderground v.1.13,2013-01-20 04:30:00,
2013-01-19 20:40:00,41.6,35.6,30.20,North,32767,0.0,0.0,79,0.00,,,0.00,Wunderground v.1.13,2013-01-20 04:40:00,
2013-01-19 20:50:00,41.3,35.6,30.20,North,32767,0.0,0.0,80,0.00,,,0.00,Wunderground v.1.13,2013-01-20 04:50:00,
2013-01-19 20:55:00,41.2,35.5,30.20,North,360,0.0,0.0,80,0.00,,,0.00,Wunderground v.1.13,2013-01-20 04:55:00,
2013-01-19 21:00:00,41.1,35.7,30.20,North,32767,0.0,0.0,81,0.00,,,0.00,Wunderground v.1.13,2013-01-20 05:00:00,
2013-01-19 21:06:00,41.0,35.6,30.20,North,32767,0.0,0.0,81,0.00,,,0.00,Wunderground v.1.13,2013-01-20 05:06:00,
2013-01-19 21:15:00,40.8,35.4,30.20,North,32767,0.0,0.0,81,0.00,,,0.00,Wunderground v.1.13,2013-01-20 05:15:00,
2013-01-19 21:20:00,40.7,35.6,30.21,North,32767,0.0,0.0,82,0.00,,,0.00,Wunderground v.1.13,2013-01-20 05:20:00,
2013-01-19 21:25:00,40.5,35.4,30.21,North,360,0.0,0.0,82,0.00,,,0.00,Wunderground v.1.13,2013-01-20 05:25:00,
2013-01-19 21:30:00,40.4,35.3,30.21,North,32767,0.0,0.0,82,0.00,,,0.00,Wunderground v.1.13,2013-01-20 05:30:00,
2013-01-19 21:40:00,40.2,35.1,30.21,North,32767,0.0,0.0,82,0.00,,,0.00,Wunderground v.1.13,2013-01-20 05:40:00,
2013-01-19 21:45:00,40.1,35.0,30.21,North,32767,0.0,0.0,82,0.00,,,0.00,Wunderground v.1.13,2013-01-20 05:45:00,
2013-01-19 21:55:00,39.8,35.1,30.22,North,32767,0.0,0.0,83,0.00,,,0.00,Wunderground v.1.13,2013-01-20 05:55:00,
2013-01-19 22:00:00,39.7,35.0,30.22,North,360,0.0,0.0,83,0.00,,,0.00,Wunderground v.1.13,2013-01-20 06:00:00,
2013-01-19 22:05:00,39.6,34.9,30.22,North,32767,0.0,0.0,83,0.00,,,0.00,Wunderground v.1.13,2013-01-20 06:05:00,
2013-01-19 22:15:00,39.5,34.8,30.22,North,32767,0.0,0.0,83,0.00,,,0.00,Wunderground v.1.13,2013-01-20 06:15:00,
2013-01-19 22:20:00,39.4,34.7,30.22,North,360,0.0,0.0,83,0.00,,,0.00,Wunderground v.1.13,2013-01-20 06:20:00,
2013-01-19 22:30:00,39.2,34.5,30.22,North,32767,0.0,0.0,83,0.00,,,0.00,Wunderground v.1.13,2013-01-20 06:30:00,
2013-01-19 22:35:00,39.1,34.4,30.22,North,360,0.0,0.0,83,0.00,,,0.00,Wunderground v.1.13,2013-01-20 06:35:00,
2013-01-19 22:40:00,39.0,34.3,30.22,North,32767,0.0,0.0,83,0.00,,,0.00,Wunderground v.1.13,2013-01-20 06:40:00,
2013-01-19 22:45:00,38.9,34.2,30.22,North,360,0.0,0.0,83,0.00,,,0.00,Wunderground v.1.13,2013-01-20 06:45:00,
2013-01-19 22:50:00,38.9,34.2,30.22,North,32767,0.0,0.0,83,0.00,,,0.00,Wunderground v.1.13,2013-01-20 06:50:00,
2013-01-19 23:00:00,39.2,34.8,30.22,North,360,0.0,0.0,84,0.00,,,0.00,Wunderground v.1.13,2013-01-20 07:00:00,
2013-01-19 23:06:00,39.3,34.9,30.22,North,360,0.0,0.0,84,0.00,,,0.00,Wunderground v.1.13,2013-01-20 07:06:00,
2013-01-19 23:15:00,39.2,34.5,30.22,North,360,0.0,0.0,83,0.00,,,0.00,Wunderground v.1.13,2013-01-20 07:15:00,
2013-01-19 23:20:00,39.1,34.4,30.22,North,32767,0.0,0.0,83,0.00,,,0.00,Wunderground v.1.13,2013-01-20 07:20:00,
2013-01-19 23:25:00,39.0,34.3,30.22,North,32767,0.0,0.0,83,0.00,,,0.00,Wunderground v.1.13,2013-01-20 07:25:00,
2013-01-19 23:35:00,38.8,34.1,30.22,North,32767,0.0,0.0,83,0.00,,,0.00,Wunderground v.1.13,2013-01-20 07:35:00,
2013-01-19 23:45:00,38.6,33.9,30.22,North,32767,0.0,0.0,83,0.00,,,0.00,Wunderground v.1.13,2013-01-20 07:45:00,
2013-01-19 23:50:00,38.4,33.7,30.22,North,32767,0.0,0.0,83,0.00,,,0.00,Wunderground v.1.13,2013-01-20 07:50:00,
2013-01-19 23:55:00,38.3,33.6,30.22,North,32767,0.0,0.0,83,0.00,,,0.00,Wunderground v.1.13,2013-01-20 07:55:00,